sensor_id;sensor_type;location;lat;lon;timestamp;temperature;humidity
10451;DHT22;5273;51.290;6.918;2023-12-20T00:02:02;7.70;99.90
10451;DHT22;5273;51.290;6.918;2023-12-20T00:04:28;7.70;99.90
10451;DHT22;5273;51.290;6.918;2023-12-20T00:06:54;7.70;99.90
10451;DHT22;5273;51.290;6.918;2023-12-20T00:09:21;7.70;99.90
10451;DHT22;5273;51.290;6.918;2023-12-20T00:11:48;7.70;99.90
10451;DHT22;5273;51.290;6.918;2023-12-20T00:14:16;7.70;99.90
10451;DHT22;5273;51.290;6.918;2023-12-20T00:16:43;7.70;99.90
10451;DHT22;5273;51.290;6.918;2023-12-20T00:19:10;7.70;99.90
10451;DHT22;5273;51.290;6.918;2023-12-20T00:21:37;7.60;99.90
10451;DHT22;5273;51.290;6.918;2023-12-20T00:24:04;7.80;99.90
10451;DHT22;5273;51.290;6.918;2023-12-20T00:26:31;7.70;99.90
10451;DHT22;5273;51.290;6.918;2023-12-20T00:28:58;7.70;99.90
10451;DHT22;5273;51.290;6.918;2023-12-20T00:31:26;7.60;99.90
10451;DHT22;5273;51.290;6.918;2023-12-20T00:33:53;7.60;99.90
10451;DHT22;5273;51.290;6.918;2023-12-20T00:36:20;7.60;99.90
10451;DHT22;5273;51.290;6.918;2023-12-20T00:38:47;7.60;99.90
10451;DHT22;5273;51.290;6.918;2023-12-20T00:41:15;7.60;99.90
10451;DHT22;5273;51.290;6.918;2023-12-20T00:43:42;7.60;99.90
10451;DHT22;5273;51.290;6.918;2023-12-20T00:46:10;7.60;99.90
10451;DHT22;5273;51.290;6.918;2023-12-20T00:48:38;7.50;99.90
10451;DHT22;5273;51.290;6.918;2023-12-20T00:51:07;7.60;99.90
10451;DHT22;5273;51.290;6.918;2023-12-20T00:53:34;7.50;99.90
10451;DHT22;5273;51.290;6.918;2023-12-20T00:56:01;7.50;99.90
10451;DHT22;5273;51.290;6.918;2023-12-20T00:58:28;7.50;99.90
10451;DHT22;5273;51.290;6.918;2023-12-20T01:00:55;7.60;99.90
10451;DHT22;5273;51.290;6.918;2023-12-20T01:03:21;7.40;99.90
10451;DHT22;5273;51.290;6.918;2023-12-20T01:05:50;7.40;99.90
10451;DHT22;5273;51.290;6.918;2023-12-20T01:08:17;7.40;99.90
10451;DHT22;5273;51.290;6.918;2023-12-20T01:10:43;7.40;99.90
10451;DHT22;5273;51.290;6.918;2023-12-20T01:13:12;7.40;99.90
10451;DHT22;5273;51.290;6.918;2023-12-20T01:15:39;7.40;99.90
10451;DHT22;5273;51.290;6.918;2023-12-20T01:18:05;7.40;99.90
10451;DHT22;5273;51.290;6.918;2023-12-20T01:20:32;7.40;99.90
10451;DHT22;5273;51.290;6.918;2023-12-20T01:23:00;7.40;99.90
10451;DHT22;5273;51.290;6.918;2023-12-20T01:25:27;7.40;99.90
10451;DHT22;5273;51.290;6.918;2023-12-20T01:27:54;7.40;99.90
10451;DHT22;5273;51.290;6.918;2023-12-20T01:30:21;7.40;99.90
10451;DHT22;5273;51.290;6.918;2023-12-20T01:32:47;7.40;99.90
10451;DHT22;5273;51.290;6.918;2023-12-20T01:35:14;7.40;99.90
10451;DHT22;5273;51.290;6.918;2023-12-20T01:37:41;7.40;99.90
10451;DHT22;5273;51.290;6.918;2023-12-20T01:40:10;7.40;99.90
10451;DHT22;5273;51.290;6.918;2023-12-20T01:42:37;7.40;99.90
10451;DHT22;5273;51.290;6.918;2023-12-20T01:45:05;7.50;99.90
10451;DHT22;5273;51.290;6.918;2023-12-20T01:47:31;7.50;99.90
10451;DHT22;5273;51.290;6.918;2023-12-20T01:49:58;7.40;99.90
10451;DHT22;5273;51.290;6.918;2023-12-20T01:52:25;7.40;99.90
10451;DHT22;5273;51.290;6.918;2023-12-20T01:54:53;7.40;99.90
10451;DHT22;5273;51.290;6.918;2023-12-20T01:57:27;7.30;99.90
10451;DHT22;5273;51.290;6.918;2023-12-20T01:59:55;7.30;99.90
10451;DHT22;5273;51.290;6.918;2023-12-20T02:02:22;7.30;99.90
10451;DHT22;5273;51.290;6.918;2023-12-20T02:04:49;7.20;99.90
10451;DHT22;5273;51.290;6.918;2023-12-20T02:07:17;7.20;99.90
10451;DHT22;5273;51.290;6.918;2023-12-20T02:09:44;7.10;99.90
10451;DHT22;5273;51.290;6.918;2023-12-20T02:12:11;7.10;99.90
10451;DHT22;5273;51.290;6.918;2023-12-20T02:14:39;7.00;99.90
10451;DHT22;5273;51.290;6.918;2023-12-20T02:17:06;6.90;99.90
10451;DHT22;5273;51.290;6.918;2023-12-20T02:19:33;6.80;99.90
10451;DHT22;5273;51.290;6.918;2023-12-20T02:22:08;6.70;99.90
10451;DHT22;5273;51.290;6.918;2023-12-20T02:24:35;6.70;99.90
10451;DHT22;5273;51.290;6.918;2023-12-20T02:27:03;6.60;99.90
10451;DHT22;5273;51.290;6.918;2023-12-20T02:29:32;6.60;99.90
10451;DHT22;5273;51.290;6.918;2023-12-20T02:31:59;6.50;99.90
10451;DHT22;5273;51.290;6.918;2023-12-20T02:34:26;6.40;99.90
10451;DHT22;5273;51.290;6.918;2023-12-20T02:36:52;6.40;99.90
10451;DHT22;5273;51.290;6.918;2023-12-20T02:39:21;6.40;99.90
10451;DHT22;5273;51.290;6.918;2023-12-20T02:41:48;6.40;99.90
10451;DHT22;5273;51.290;6.918;2023-12-20T02:44:15;6.40;99.90
10451;DHT22;5273;51.290;6.918;2023-12-20T02:46:42;6.40;99.90
10451;DHT22;5273;51.290;6.918;2023-12-20T02:49:09;6.40;99.90
10451;DHT22;5273;51.290;6.918;2023-12-20T02:51:35;6.40;99.90
10451;DHT22;5273;51.290;6.918;2023-12-20T02:54:04;6.40;99.90
10451;DHT22;5273;51.290;6.918;2023-12-20T02:56:32;6.40;99.90
10451;DHT22;5273;51.290;6.918;2023-12-20T02:58:59;6.40;99.90
10451;DHT22;5273;51.290;6.918;2023-12-20T03:01:27;6.60;99.90
10451;DHT22;5273;51.290;6.918;2023-12-20T03:03:53;6.40;99.90
10451;DHT22;5273;51.290;6.918;2023-12-20T03:06:20;6.50;99.90
10451;DHT22;5273;51.290;6.918;2023-12-20T03:08:47;6.60;99.90
10451;DHT22;5273;51.290;6.918;2023-12-20T03:11:14;6.40;99.90
10451;DHT22;5273;51.290;6.918;2023-12-20T03:13:42;6.50;99.90
10451;DHT22;5273;51.290;6.918;2023-12-20T03:16:09;6.50;99.90
10451;DHT22;5273;51.290;6.918;2023-12-20T03:18:36;6.50;99.90
10451;DHT22;5273;51.290;6.918;2023-12-20T03:21:04;6.50;99.90
10451;DHT22;5273;51.290;6.918;2023-12-20T03:23:31;6.50;99.90
10451;DHT22;5273;51.290;6.918;2023-12-20T03:25:59;6.50;99.90
10451;DHT22;5273;51.290;6.918;2023-12-20T03:28:27;6.50;99.90
10451;DHT22;5273;51.290;6.918;2023-12-20T03:30:55;6.50;99.90
10451;DHT22;5273;51.290;6.918;2023-12-20T03:33:22;6.50;99.90
10451;DHT22;5273;51.290;6.918;2023-12-20T03:35:49;6.50;99.90
10451;DHT22;5273;51.290;6.918;2023-12-20T03:38:16;6.50;99.90
10451;DHT22;5273;51.290;6.918;2023-12-20T03:40:42;6.60;99.90
10451;DHT22;5273;51.290;6.918;2023-12-20T03:43:09;6.40;99.90
10451;DHT22;5273;51.290;6.918;2023-12-20T03:45:36;6.40;99.90
10451;DHT22;5273;51.290;6.918;2023-12-20T03:48:05;6.30;99.90
10451;DHT22;5273;51.290;6.918;2023-12-20T03:50:32;6.40;99.90
10451;DHT22;5273;51.290;6.918;2023-12-20T03:52:59;6.40;99.90
10451;DHT22;5273;51.290;6.918;2023-12-20T03:55:26;6.30;99.90
10451;DHT22;5273;51.290;6.918;2023-12-20T03:57:53;6.30;99.90
10451;DHT22;5273;51.290;6.918;2023-12-20T04:00:20;6.30;99.90
10451;DHT22;5273;51.290;6.918;2023-12-20T04:02:46;6.30;99.90
10451;DHT22;5273;51.290;6.918;2023-12-20T04:05:15;6.30;99.90
10451;DHT22;5273;51.290;6.918;2023-12-20T04:07:40;6.30;99.90
10451;DHT22;5273;51.290;6.918;2023-12-20T04:10:08;6.30;99.90
10451;DHT22;5273;51.290;6.918;2023-12-20T04:12:34;6.30;99.90
10451;DHT22;5273;51.290;6.918;2023-12-20T04:15:01;6.30;99.90
10451;DHT22;5273;51.290;6.918;2023-12-20T04:17:34;6.30;99.90
10451;DHT22;5273;51.290;6.918;2023-12-20T04:20:01;6.30;99.90
10451;DHT22;5273;51.290;6.918;2023-12-20T04:22:29;6.20;99.90
10451;DHT22;5273;51.290;6.918;2023-12-20T04:24:56;6.20;99.90
10451;DHT22;5273;51.290;6.918;2023-12-20T04:27:23;6.20;99.90
10451;DHT22;5273;51.290;6.918;2023-12-20T04:29:49;6.20;99.90
10451;DHT22;5273;51.290;6.918;2023-12-20T04:32:16;6.10;99.90
10451;DHT22;5273;51.290;6.918;2023-12-20T04:34:43;6.10;99.90
10451;DHT22;5273;51.290;6.918;2023-12-20T04:37:10;6.10;99.90
10451;DHT22;5273;51.290;6.918;2023-12-20T04:39:39;6.10;99.90
10451;DHT22;5273;51.290;6.918;2023-12-20T04:42:06;6.10;99.90
10451;DHT22;5273;51.290;6.918;2023-12-20T04:44:33;6.10;99.90
10451;DHT22;5273;51.290;6.918;2023-12-20T04:47:00;6.10;99.90
10451;DHT22;5273;51.290;6.918;2023-12-20T04:49:27;6.20;99.90
10451;DHT22;5273;51.290;6.918;2023-12-20T04:51:54;6.10;99.90
10451;DHT22;5273;51.290;6.918;2023-12-20T04:54:21;6.20;99.90
10451;DHT22;5273;51.290;6.918;2023-12-20T04:56:49;6.20;99.90
10451;DHT22;5273;51.290;6.918;2023-12-20T04:59:16;6.20;99.90
10451;DHT22;5273;51.290;6.918;2023-12-20T05:01:43;6.10;99.90
10451;DHT22;5273;51.290;6.918;2023-12-20T05:04:10;6.10;99.90
10451;DHT22;5273;51.290;6.918;2023-12-20T05:06:36;6.10;99.90
10451;DHT22;5273;51.290;6.918;2023-12-20T05:09:03;6.10;99.90
10451;DHT22;5273;51.290;6.918;2023-12-20T05:11:30;6.10;99.90
10451;DHT22;5273;51.290;6.918;2023-12-20T05:13:58;6.20;99.90
10451;DHT22;5273;51.290;6.918;2023-12-20T05:16:25;6.10;99.90
10451;DHT22;5273;51.290;6.918;2023-12-20T05:18:52;6.10;99.90
10451;DHT22;5273;51.290;6.918;2023-12-20T05:21:19;6.10;99.90
10451;DHT22;5273;51.290;6.918;2023-12-20T05:23:45;6.20;99.90
10451;DHT22;5273;51.290;6.918;2023-12-20T05:26:12;6.30;99.90
10451;DHT22;5273;51.290;6.918;2023-12-20T05:28:39;6.10;99.90
10451;DHT22;5273;51.290;6.918;2023-12-20T05:31:07;6.10;99.90
10451;DHT22;5273;51.290;6.918;2023-12-20T05:33:34;6.10;99.90
10451;DHT22;5273;51.290;6.918;2023-12-20T05:36:01;6.20;99.90
10451;DHT22;5273;51.290;6.918;2023-12-20T05:38:28;6.10;99.90
10451;DHT22;5273;51.290;6.918;2023-12-20T05:40:55;6.20;99.90
10451;DHT22;5273;51.290;6.918;2023-12-20T05:43:22;6.10;99.90
10451;DHT22;5273;51.290;6.918;2023-12-20T05:45:49;6.10;99.90
10451;DHT22;5273;51.290;6.918;2023-12-20T05:48:17;6.10;99.90
10451;DHT22;5273;51.290;6.918;2023-12-20T05:50:44;6.10;99.90
10451;DHT22;5273;51.290;6.918;2023-12-20T05:53:11;6.10;99.90
10451;DHT22;5273;51.290;6.918;2023-12-20T05:55:37;6.30;99.90
10451;DHT22;5273;51.290;6.918;2023-12-20T05:58:04;6.10;99.90
10451;DHT22;5273;51.290;6.918;2023-12-20T06:00:31;6.10;99.90
10451;DHT22;5273;51.290;6.918;2023-12-20T06:02:58;6.10;99.90
10451;DHT22;5273;51.290;6.918;2023-12-20T06:05:27;6.20;99.90
10451;DHT22;5273;51.290;6.918;2023-12-20T06:07:53;6.10;99.90
10451;DHT22;5273;51.290;6.918;2023-12-20T06:10:22;6.10;99.90
10451;DHT22;5273;51.290;6.918;2023-12-20T06:12:49;6.10;99.90
10451;DHT22;5273;51.290;6.918;2023-12-20T06:15:16;6.20;99.90
10451;DHT22;5273;51.290;6.918;2023-12-20T06:17:43;6.10;99.90
10451;DHT22;5273;51.290;6.918;2023-12-20T06:20:10;6.10;99.90
10451;DHT22;5273;51.290;6.918;2023-12-20T06:22:39;6.10;99.90
10451;DHT22;5273;51.290;6.918;2023-12-20T06:25:07;6.10;99.90
10451;DHT22;5273;51.290;6.918;2023-12-20T06:27:34;6.10;99.90
10451;DHT22;5273;51.290;6.918;2023-12-20T06:30:01;6.10;99.90
10451;DHT22;5273;51.290;6.918;2023-12-20T06:32:27;6.20;99.90
10451;DHT22;5273;51.290;6.918;2023-12-20T06:34:55;6.20;99.90
10451;DHT22;5273;51.290;6.918;2023-12-20T06:37:22;6.20;99.90
10451;DHT22;5273;51.290;6.918;2023-12-20T06:39:50;6.20;99.90
10451;DHT22;5273;51.290;6.918;2023-12-20T06:42:17;6.20;99.90
10451;DHT22;5273;51.290;6.918;2023-12-20T06:44:44;6.20;99.90
10451;DHT22;5273;51.290;6.918;2023-12-20T06:47:11;6.20;99.90
10451;DHT22;5273;51.290;6.918;2023-12-20T06:49:39;6.20;99.90
10451;DHT22;5273;51.290;6.918;2023-12-20T06:52:06;6.20;99.90
10451;DHT22;5273;51.290;6.918;2023-12-20T06:54:33;6.20;99.90
10451;DHT22;5273;51.290;6.918;2023-12-20T06:57:02;6.20;99.90
10451;DHT22;5273;51.290;6.918;2023-12-20T06:59:30;6.20;99.90
10451;DHT22;5273;51.290;6.918;2023-12-20T07:01:56;6.20;99.90
10451;DHT22;5273;51.290;6.918;2023-12-20T07:04:23;6.30;99.90
10451;DHT22;5273;51.290;6.918;2023-12-20T07:06:50;6.30;99.90
10451;DHT22;5273;51.290;6.918;2023-12-20T07:09:19;6.30;99.90
10451;DHT22;5273;51.290;6.918;2023-12-20T07:11:46;6.30;99.90
10451;DHT22;5273;51.290;6.918;2023-12-20T07:14:14;6.30;99.90
10451;DHT22;5273;51.290;6.918;2023-12-20T07:16:41;6.40;99.90
10451;DHT22;5273;51.290;6.918;2023-12-20T07:19:08;6.30;99.90
10451;DHT22;5273;51.290;6.918;2023-12-20T07:21:35;6.30;99.90
10451;DHT22;5273;51.290;6.918;2023-12-20T07:24:02;6.30;99.90
10451;DHT22;5273;51.290;6.918;2023-12-20T07:26:29;6.30;99.90
10451;DHT22;5273;51.290;6.918;2023-12-20T07:28:56;6.30;99.90
10451;DHT22;5273;51.290;6.918;2023-12-20T07:31:25;6.30;99.90
10451;DHT22;5273;51.290;6.918;2023-12-20T07:33:52;6.30;99.90
10451;DHT22;5273;51.290;6.918;2023-12-20T07:36:19;6.30;99.90
10451;DHT22;5273;51.290;6.918;2023-12-20T07:38:46;6.30;99.90
10451;DHT22;5273;51.290;6.918;2023-12-20T07:41:13;6.30;99.90
10451;DHT22;5273;51.290;6.918;2023-12-20T07:43:41;6.30;99.90
10451;DHT22;5273;51.290;6.918;2023-12-20T07:46:08;6.30;99.90
10451;DHT22;5273;51.290;6.918;2023-12-20T07:48:37;6.40;99.90
10451;DHT22;5273;51.290;6.918;2023-12-20T07:51:04;6.40;99.90
10451;DHT22;5273;51.290;6.918;2023-12-20T07:53:34;6.40;99.90
10451;DHT22;5273;51.290;6.918;2023-12-20T07:56:00;6.40;99.90
10451;DHT22;5273;51.290;6.918;2023-12-20T07:58:27;6.40;99.90
10451;DHT22;5273;51.290;6.918;2023-12-20T08:00:55;6.30;99.90
10451;DHT22;5273;51.290;6.918;2023-12-20T08:03:22;6.40;99.90
10451;DHT22;5273;51.290;6.918;2023-12-20T08:05:50;6.40;99.90
10451;DHT22;5273;51.290;6.918;2023-12-20T08:08:17;6.40;99.90
10451;DHT22;5273;51.290;6.918;2023-12-20T08:10:44;6.40;99.90
10451;DHT22;5273;51.290;6.918;2023-12-20T08:13:11;6.40;99.90
10451;DHT22;5273;51.290;6.918;2023-12-20T08:15:37;6.40;99.90
10451;DHT22;5273;51.290;6.918;2023-12-20T08:18:04;6.40;99.90
10451;DHT22;5273;51.290;6.918;2023-12-20T08:20:31;6.40;99.90
10451;DHT22;5273;51.290;6.918;2023-12-20T08:22:59;6.40;99.90
10451;DHT22;5273;51.290;6.918;2023-12-20T08:25:27;6.50;99.90
10451;DHT22;5273;51.290;6.918;2023-12-20T08:27:54;6.50;99.90
10451;DHT22;5273;51.290;6.918;2023-12-20T08:30:20;6.60;99.90
10451;DHT22;5273;51.290;6.918;2023-12-20T08:32:47;6.50;99.90
10451;DHT22;5273;51.290;6.918;2023-12-20T08:35:14;6.50;99.90
10451;DHT22;5273;51.290;6.918;2023-12-20T08:37:41;6.50;99.90
10451;DHT22;5273;51.290;6.918;2023-12-20T08:40:10;6.50;99.90
10451;DHT22;5273;51.290;6.918;2023-12-20T08:42:37;6.50;99.90
10451;DHT22;5273;51.290;6.918;2023-12-20T08:45:04;6.50;99.90
10451;DHT22;5273;51.290;6.918;2023-12-20T08:47:31;6.50;99.90
10451;DHT22;5273;51.290;6.918;2023-12-20T08:49:58;6.50;99.90
10451;DHT22;5273;51.290;6.918;2023-12-20T08:52:27;6.60;99.90
10451;DHT22;5273;51.290;6.918;2023-12-20T08:54:54;6.60;99.90
10451;DHT22;5273;51.290;6.918;2023-12-20T08:57:23;6.60;99.90
10451;DHT22;5273;51.290;6.918;2023-12-20T08:59:50;6.60;99.90
10451;DHT22;5273;51.290;6.918;2023-12-20T09:02:17;6.60;99.90
10451;DHT22;5273;51.290;6.918;2023-12-20T09:04:44;6.60;99.90
10451;DHT22;5273;51.290;6.918;2023-12-20T09:07:21;6.60;99.90
10451;DHT22;5273;51.290;6.918;2023-12-20T09:09:48;6.60;99.90
10451;DHT22;5273;51.290;6.918;2023-12-20T09:12:16;6.60;99.90
10451;DHT22;5273;51.290;6.918;2023-12-20T09:14:44;6.70;99.90
10451;DHT22;5273;51.290;6.918;2023-12-20T09:17:12;6.60;99.90
10451;DHT22;5273;51.290;6.918;2023-12-20T09:19:39;6.70;99.90
10451;DHT22;5273;51.290;6.918;2023-12-20T09:22:06;6.70;99.90
10451;DHT22;5273;51.290;6.918;2023-12-20T09:24:33;6.70;99.90
10451;DHT22;5273;51.290;6.918;2023-12-20T09:27:00;6.70;99.90
10451;DHT22;5273;51.290;6.918;2023-12-20T09:29:26;6.70;99.90
10451;DHT22;5273;51.290;6.918;2023-12-20T09:31:55;6.70;99.90
10451;DHT22;5273;51.290;6.918;2023-12-20T09:34:23;6.70;99.90
10451;DHT22;5273;51.290;6.918;2023-12-20T09:36:51;6.70;99.90
10451;DHT22;5273;51.290;6.918;2023-12-20T09:39:19;6.70;99.90
10451;DHT22;5273;51.290;6.918;2023-12-20T09:41:49;6.70;99.90
10451;DHT22;5273;51.290;6.918;2023-12-20T09:44:18;6.70;99.90
10451;DHT22;5273;51.290;6.918;2023-12-20T09:46:49;6.70;99.90
10451;DHT22;5273;51.290;6.918;2023-12-20T09:49:18;6.80;99.90
10451;DHT22;5273;51.290;6.918;2023-12-20T09:51:46;6.70;99.90
10451;DHT22;5273;51.290;6.918;2023-12-20T09:54:14;6.70;99.90
10451;DHT22;5273;51.290;6.918;2023-12-20T09:56:42;6.70;99.90
10451;DHT22;5273;51.290;6.918;2023-12-20T09:59:09;6.70;99.90
10451;DHT22;5273;51.290;6.918;2023-12-20T10:01:36;6.70;99.90
10451;DHT22;5273;51.290;6.918;2023-12-20T10:04:06;6.70;99.90
10451;DHT22;5273;51.290;6.918;2023-12-20T10:06:36;6.80;99.90
10451;DHT22;5273;51.290;6.918;2023-12-20T10:09:03;6.70;99.90
10451;DHT22;5273;51.290;6.918;2023-12-20T10:11:31;6.70;99.90
10451;DHT22;5273;51.290;6.918;2023-12-20T10:13:59;6.70;99.90
10451;DHT22;5273;51.290;6.918;2023-12-20T10:16:26;6.70;99.90
10451;DHT22;5273;51.290;6.918;2023-12-20T10:18:53;6.70;99.90
10451;DHT22;5273;51.290;6.918;2023-12-20T10:21:21;6.70;99.90
10451;DHT22;5273;51.290;6.918;2023-12-20T10:23:50;6.70;99.90
10451;DHT22;5273;51.290;6.918;2023-12-20T10:26:19;6.70;99.90
10451;DHT22;5273;51.290;6.918;2023-12-20T10:28:50;6.80;99.90
10451;DHT22;5273;51.290;6.918;2023-12-20T10:31:26;6.80;99.90
10451;DHT22;5273;51.290;6.918;2023-12-20T10:33:56;6.80;99.90
10451;DHT22;5273;51.290;6.918;2023-12-20T10:36:23;6.80;99.90
10451;DHT22;5273;51.290;6.918;2023-12-20T10:38:54;6.80;99.90
10451;DHT22;5273;51.290;6.918;2023-12-20T10:41:25;6.80;99.90
10451;DHT22;5273;51.290;6.918;2023-12-20T10:43:55;6.80;99.90
10451;DHT22;5273;51.290;6.918;2023-12-20T10:46:22;6.80;99.90
10451;DHT22;5273;51.290;6.918;2023-12-20T10:48:52;6.80;99.90
10451;DHT22;5273;51.290;6.918;2023-12-20T10:51:20;6.90;99.90
10451;DHT22;5273;51.290;6.918;2023-12-20T10:53:48;6.80;99.90
10451;DHT22;5273;51.290;6.918;2023-12-20T10:56:17;6.80;99.90
10451;DHT22;5273;51.290;6.918;2023-12-20T10:58:45;6.90;99.90
10451;DHT22;5273;51.290;6.918;2023-12-20T11:01:14;6.80;99.90
10451;DHT22;5273;51.290;6.918;2023-12-20T11:03:44;6.90;99.90
10451;DHT22;5273;51.290;6.918;2023-12-20T11:06:24;6.90;99.90
10451;DHT22;5273;51.290;6.918;2023-12-20T11:08:58;6.90;99.90
10451;DHT22;5273;51.290;6.918;2023-12-20T11:11:39;6.90;99.90
10451;DHT22;5273;51.290;6.918;2023-12-20T11:14:15;6.90;99.90
10451;DHT22;5273;51.290;6.918;2023-12-20T11:16:42;6.90;99.90
10451;DHT22;5273;51.290;6.918;2023-12-20T11:19:11;6.90;99.90
10451;DHT22;5273;51.290;6.918;2023-12-20T11:21:40;6.90;99.90
10451;DHT22;5273;51.290;6.918;2023-12-20T11:24:07;6.90;99.90
10451;DHT22;5273;51.290;6.918;2023-12-20T11:26:35;6.90;99.90
10451;DHT22;5273;51.290;6.918;2023-12-20T11:29:30;6.90;99.90
10451;DHT22;5273;51.290;6.918;2023-12-20T11:31:57;6.90;99.90
10451;DHT22;5273;51.290;6.918;2023-12-20T11:34:27;6.90;99.90
10451;DHT22;5273;51.290;6.918;2023-12-20T11:36:57;6.90;99.90
10451;DHT22;5273;51.290;6.918;2023-12-20T11:39:25;6.90;99.90
10451;DHT22;5273;51.290;6.918;2023-12-20T11:41:55;6.90;99.90
10451;DHT22;5273;51.290;6.918;2023-12-20T11:44:25;6.90;99.90
10451;DHT22;5273;51.290;6.918;2023-12-20T11:46:52;6.90;99.90
10451;DHT22;5273;51.290;6.918;2023-12-20T11:49:23;6.90;99.90
10451;DHT22;5273;51.290;6.918;2023-12-20T11:51:50;7.00;99.90
10451;DHT22;5273;51.290;6.918;2023-12-20T11:54:17;7.00;99.90
10451;DHT22;5273;51.290;6.918;2023-12-20T11:56:44;7.00;99.90
10451;DHT22;5273;51.290;6.918;2023-12-20T11:59:13;7.00;99.90
10451;DHT22;5273;51.290;6.918;2023-12-20T12:01:40;7.00;99.90
10451;DHT22;5273;51.290;6.918;2023-12-20T12:04:14;7.00;99.90
10451;DHT22;5273;51.290;6.918;2023-12-20T12:06:41;7.00;99.90
10451;DHT22;5273;51.290;6.918;2023-12-20T12:09:08;6.90;99.90
10451;DHT22;5273;51.290;6.918;2023-12-20T12:11:35;7.00;99.90
10451;DHT22;5273;51.290;6.918;2023-12-20T12:14:02;7.10;99.90
10451;DHT22;5273;51.290;6.918;2023-12-20T12:16:31;7.10;99.90
10451;DHT22;5273;51.290;6.918;2023-12-20T12:18:58;7.20;99.90
10451;DHT22;5273;51.290;6.918;2023-12-20T12:21:26;7.00;99.90
10451;DHT22;5273;51.290;6.918;2023-12-20T12:23:52;7.00;99.90
10451;DHT22;5273;51.290;6.918;2023-12-20T12:26:19;7.00;99.90
10451;DHT22;5273;51.290;6.918;2023-12-20T12:28:46;6.90;99.90
10451;DHT22;5273;51.290;6.918;2023-12-20T12:31:14;7.00;99.90
10451;DHT22;5273;51.290;6.918;2023-12-20T12:33:43;6.90;99.90
10451;DHT22;5273;51.290;6.918;2023-12-20T12:36:10;6.90;99.90
10451;DHT22;5273;51.290;6.918;2023-12-20T12:38:38;6.90;99.90
10451;DHT22;5273;51.290;6.918;2023-12-20T12:41:04;6.90;99.90
10451;DHT22;5273;51.290;6.918;2023-12-20T12:43:32;6.90;99.90
10451;DHT22;5273;51.290;6.918;2023-12-20T12:45:59;6.90;99.90
10451;DHT22;5273;51.290;6.918;2023-12-20T12:48:27;7.10;99.90
10451;DHT22;5273;51.290;6.918;2023-12-20T12:50:56;6.90;99.90
10451;DHT22;5273;51.290;6.918;2023-12-20T12:53:25;6.90;99.90
10451;DHT22;5273;51.290;6.918;2023-12-20T12:55:52;6.90;99.90
10451;DHT22;5273;51.290;6.918;2023-12-20T12:58:19;6.80;99.90
10451;DHT22;5273;51.290;6.918;2023-12-20T13:00:46;6.90;99.90
10451;DHT22;5273;51.290;6.918;2023-12-20T13:03:13;6.90;99.90
10451;DHT22;5273;51.290;6.918;2023-12-20T13:05:40;6.90;99.90
10451;DHT22;5273;51.290;6.918;2023-12-20T13:08:08;6.90;99.90
10451;DHT22;5273;51.290;6.918;2023-12-20T13:10:37;6.90;99.90
10451;DHT22;5273;51.290;6.918;2023-12-20T13:13:04;6.90;99.90
10451;DHT22;5273;51.290;6.918;2023-12-20T13:15:30;6.90;99.90
10451;DHT22;5273;51.290;6.918;2023-12-20T13:17:58;6.90;99.90
10451;DHT22;5273;51.290;6.918;2023-12-20T13:20:25;6.90;99.90
10451;DHT22;5273;51.290;6.918;2023-12-20T13:22:52;6.90;99.90
10451;DHT22;5273;51.290;6.918;2023-12-20T13:25:20;6.90;99.90
10451;DHT22;5273;51.290;6.918;2023-12-20T13:27:47;6.80;99.90
10451;DHT22;5273;51.290;6.918;2023-12-20T13:30:14;6.90;99.90
10451;DHT22;5273;51.290;6.918;2023-12-20T13:32:41;6.90;99.90
10451;DHT22;5273;51.290;6.918;2023-12-20T13:35:08;6.90;99.90
10451;DHT22;5273;51.290;6.918;2023-12-20T13:37:35;6.80;99.90
10451;DHT22;5273;51.290;6.918;2023-12-20T13:40:04;6.80;99.90
10451;DHT22;5273;51.290;6.918;2023-12-20T13:42:33;6.90;99.90
10451;DHT22;5273;51.290;6.918;2023-12-20T13:45:00;6.90;99.90
10451;DHT22;5273;51.290;6.918;2023-12-20T13:47:26;6.90;99.90
10451;DHT22;5273;51.290;6.918;2023-12-20T13:49:54;6.90;99.90
10451;DHT22;5273;51.290;6.918;2023-12-20T13:52:21;6.90;99.90
10451;DHT22;5273;51.290;6.918;2023-12-20T13:54:49;6.90;99.90
10451;DHT22;5273;51.290;6.918;2023-12-20T13:57:16;6.90;99.90
10451;DHT22;5273;51.290;6.918;2023-12-20T13:59:44;6.90;99.90
10451;DHT22;5273;51.290;6.918;2023-12-20T14:02:11;6.90;99.90
10451;DHT22;5273;51.290;6.918;2023-12-20T14:04:38;6.90;99.90
10451;DHT22;5273;51.290;6.918;2023-12-20T14:07:06;6.90;99.90
10451;DHT22;5273;51.290;6.918;2023-12-20T14:09:33;6.90;99.90
10451;DHT22;5273;51.290;6.918;2023-12-20T14:12:00;6.90;99.90
10451;DHT22;5273;51.290;6.918;2023-12-20T14:14:27;6.90;99.90
10451;DHT22;5273;51.290;6.918;2023-12-20T14:16:55;6.90;99.90
10451;DHT22;5273;51.290;6.918;2023-12-20T14:19:22;6.90;99.90
10451;DHT22;5273;51.290;6.918;2023-12-20T14:21:49;6.90;99.90
10451;DHT22;5273;51.290;6.918;2023-12-20T14:24:15;6.90;99.90
10451;DHT22;5273;51.290;6.918;2023-12-20T14:26:42;6.90;99.90
10451;DHT22;5273;51.290;6.918;2023-12-20T14:29:09;6.90;99.90
10451;DHT22;5273;51.290;6.918;2023-12-20T14:31:36;6.90;99.90
10451;DHT22;5273;51.290;6.918;2023-12-20T14:34:05;7.00;99.90
10451;DHT22;5273;51.290;6.918;2023-12-20T14:36:32;7.00;99.90
10451;DHT22;5273;51.290;6.918;2023-12-20T14:38:59;7.00;99.90
10451;DHT22;5273;51.290;6.918;2023-12-20T14:41:27;6.90;99.90
10451;DHT22;5273;51.290;6.918;2023-12-20T14:43:53;7.00;99.90
10451;DHT22;5273;51.290;6.918;2023-12-20T14:46:20;7.00;99.90
10451;DHT22;5273;51.290;6.918;2023-12-20T14:48:47;7.00;99.90
10451;DHT22;5273;51.290;6.918;2023-12-20T14:51:16;7.10;99.90
10451;DHT22;5273;51.290;6.918;2023-12-20T14:53:43;7.10;99.90
10451;DHT22;5273;51.290;6.918;2023-12-20T14:56:10;7.10;99.90
10451;DHT22;5273;51.290;6.918;2023-12-20T14:58:37;7.10;99.90
10451;DHT22;5273;51.290;6.918;2023-12-20T15:01:04;7.10;99.90
10451;DHT22;5273;51.290;6.918;2023-12-20T15:03:34;7.20;99.90
10451;DHT22;5273;51.290;6.918;2023-12-20T15:06:01;7.10;99.90
10451;DHT22;5273;51.290;6.918;2023-12-20T15:08:29;7.20;99.90
10451;DHT22;5273;51.290;6.918;2023-12-20T15:10:56;7.20;99.90
10451;DHT22;5273;51.290;6.918;2023-12-20T15:13:22;7.10;99.90
10451;DHT22;5273;51.290;6.918;2023-12-20T15:15:49;7.20;99.90
10451;DHT22;5273;51.290;6.918;2023-12-20T15:18:16;7.20;99.90
10451;DHT22;5273;51.290;6.918;2023-12-20T15:20:43;7.20;99.90
10451;DHT22;5273;51.290;6.918;2023-12-20T15:23:10;7.20;99.90
10451;DHT22;5273;51.290;6.918;2023-12-20T15:25:38;7.20;99.90
10451;DHT22;5273;51.290;6.918;2023-12-20T15:28:05;7.20;99.90
10451;DHT22;5273;51.290;6.918;2023-12-20T15:30:32;7.20;99.90
10451;DHT22;5273;51.290;6.918;2023-12-20T15:33:00;7.20;99.90
10451;DHT22;5273;51.290;6.918;2023-12-20T15:35:28;7.20;99.90
10451;DHT22;5273;51.290;6.918;2023-12-20T15:37:56;7.30;99.90
10451;DHT22;5273;51.290;6.918;2023-12-20T15:40:23;7.30;99.90
10451;DHT22;5273;51.290;6.918;2023-12-20T15:42:52;7.30;99.90
10451;DHT22;5273;51.290;6.918;2023-12-20T15:45:19;7.30;99.90
10451;DHT22;5273;51.290;6.918;2023-12-20T15:47:46;7.30;99.90
10451;DHT22;5273;51.290;6.918;2023-12-20T15:50:13;7.20;99.90
10451;DHT22;5273;51.290;6.918;2023-12-20T15:52:39;7.30;99.90
10451;DHT22;5273;51.290;6.918;2023-12-20T15:55:08;7.30;99.90
10451;DHT22;5273;51.290;6.918;2023-12-20T15:57:35;7.30;99.90
10451;DHT22;5273;51.290;6.918;2023-12-20T16:00:05;7.30;99.90
10451;DHT22;5273;51.290;6.918;2023-12-20T16:02:32;7.30;99.90
10451;DHT22;5273;51.290;6.918;2023-12-20T16:04:59;7.30;99.90